Time;durP1;ratioP1;P1;durP2;ratioP2;P2;SDS_P1;SDS_P2;PMS_P1;PMS_P2;Temp;Humidity;BMP_temperature;BMP_pressure;BME280_temperature;BME280_humidity;BME280_pressure;Samples;Min_cycle;Max_cycle;Signal;HPM_P1;HPM_P2
2022/06/13 00:03:14;;;;;;;5.60;4.37;;;;;;;25.30;51.93;99170.35;4403831;79;28533;-89
2022/06/13 00:09:15;;;;;;;7.45;4.97;;;;;;;25.72;50.26;99156.84;4412383;79;28511;-89
2022/06/13 00:15:17;;;;;;;6.58;4.58;;;;;;;25.63;51.17;99153.31;4410332;79;28539;-87
2022/06/13 00:21:24;;;;;;;7.10;5.03;;;;;;;25.95;49.67;99153.81;4389873;79;28459;-85
2022/06/13 00:27:25;;;;;;;7.70;5.30;;;;;;;25.81;50.08;99138.90;4381460;80;28543;-85
2022/06/13 00:33:29;;;;;;;7.62;4.83;;;;;;;25.00;52.39;99132.55;4392873;79;28545;-86
2022/06/13 00:39:31;;;;;;;7.20;4.70;;;;;;;24.07;55.40;99123.03;4403138;80;28490;-87
2022/06/13 00:45:36;;;;;;;6.00;4.65;;;;;;;23.52;58.89;99114.11;4407866;79;28645;-86
2022/06/13 00:51:48;;;;;;;5.55;4.70;;;;;;;24.34;56.25;99115.66;4370960;80;28525;-87
2022/06/13 00:57:50;;;;;;;6.10;4.47;;;;;;;24.62;53.96;99109.27;4395146;79;28576;-87
2022/06/13 01:03:52;;;;;;;5.00;4.35;;;;;;;23.14;61.05;99102.17;4407021;79;28488;-87
2022/06/13 01:16:46;;;;;;;9.40;4.50;;;;;;;23.08;59.51;99089.16;4384555;80;28548;-87
2022/06/13 01:22:59;;;;;;;6.97;4.20;;;;;;;23.17;61.09;99086.45;4379825;80;28511;-86
2022/06/13 01:29:17;;;;;;;6.30;4.22;;;;;;;23.02;60.93;99082.20;4398521;79;28538;-85
2022/06/13 01:35:36;;;;;;;6.90;4.30;;;;;;;23.04;59.95;99070.36;4398761;79;28521;-87
2022/06/13 01:42:12;;;;;;;7.00;4.47;;;;;;;22.96;60.71;99063.14;4371396;79;28519;-86
2022/06/13 01:48:28;;;;;;;6.17;3.90;;;;;;;23.12;60.08;99053.95;4390594;79;28541;-87
2022/06/13 01:54:50;;;;;;;6.83;4.20;;;;;;;22.63;62.82;99055.19;4394487;79;28503;-86
2022/06/13 02:01:03;;;;;;;4.15;3.75;;;;;;;22.69;61.86;99049.02;4411080;79;28448;-87
2022/06/13 02:07:09;;;;;;;7.53;4.92;;;;;;;22.86;60.62;99052.98;4395166;80;28503;-87
2022/06/13 02:13:19;;;;;;;5.67;4.45;;;;;;;22.73;62.28;99047.27;4407360;79;28531;-86
2022/06/13 02:19:43;;;;;;;5.78;4.15;;;;;;;22.37;63.83;99045.38;4387782;80;28460;-85
2022/06/13 02:25:53;;;;;;;5.17;3.75;;;;;;;22.43;64.14;99033.16;4371693;80;28529;-85
2022/06/13 02:32:06;;;;;;;4.53;3.75;;;;;;;22.25;63.17;99017.98;4365729;80;28456;-85
2022/06/13 02:38:24;;;;;;;5.95;4.45;;;;;;;22.06;63.05;99014.02;4217170;83;28513;-89
2022/06/13 02:44:34;;;;;;;5.45;4.10;;;;;;;21.85;65.10;99004.11;4387335;80;28517;-90
2022/06/13 02:50:58;;;;;;;6.97;4.33;;;;;;;21.99;64.27;99003.50;4363840;80;28456;-90
2022/06/13 02:57:23;;;;;;;7.05;4.42;;;;;;;22.12;64.91;98997.73;4368809;80;28488;-90
2022/06/13 03:03:45;;;;;;;7.90;4.53;;;;;;;22.33;62.15;98993.70;4231419;83;28449;-91
2022/06/13 03:09:58;;;;;;;5.78;4.22;;;;;;;22.62;61.66;98999.33;4245473;83;28467;-89
2022/06/13 03:16:08;;;;;;;6.55;4.28;;;;;;;22.72;63.32;98996.91;4248788;82;28485;-89
2022/06/13 03:22:15;;;;;;;6.83;5.03;;;;;;;23.11;61.76;99003.53;4373920;80;28527;-89
2022/06/13 03:28:30;;;;;;;6.45;5.40;;;;;;;24.78;55.52;98996.90;4409635;79;28551;-88
2022/06/13 03:34:36;;;;;;;7.75;6.12;;;;;;;23.69;60.33;98991.23;4397710;80;28570;-90
2022/06/13 03:40:42;;;;;;;10.03;5.97;;;;;;;23.66;64.04;98988.56;4387347;79;28556;-90
2022/06/13 03:46:58;;;;;;;7.78;5.08;;;;;;;24.07;60.52;98981.61;4412832;79;28483;-90
2022/06/13 03:53:07;;;;;;;6.63;4.43;;;;;;;24.55;58.91;98984.48;4394165;81;28535;-92
2022/06/13 03:59:14;;;;;;;7.12;5.03;;;;;;;24.67;59.57;98968.12;4378668;79;28483;-89
2022/06/13 04:05:19;;;;;;;;;;;;;;;25.04;59.09;98954.77;4404367;79;28509;-89
2022/06/13 04:11:40;;;;;;;6.20;5.45;;;;;;;25.39;59.03;98962.02;4389457;79;20253;-88
2022/06/13 04:18:07;;;;;;;6.15;5.45;;;;;;;26.00;55.30;98958.64;4401197;79;28532;-89
2022/06/13 04:24:20;;;;;;;8.40;4.85;;;;;;;26.22;54.93;98962.20;4412736;79;28578;-88
2022/06/13 04:30:26;;;;;;;6.72;4.55;;;;;;;26.38;53.15;98976.16;4423691;79;28493;-89
2022/06/13 04:36:30;;;;;;;8.58;5.47;;;;;;;26.73;52.79;98963.38;4401467;80;28507;-85
2022/06/13 04:42:36;;;;;;;6.42;5.17;;;;;;;26.82;53.00;98950.30;4421061;79;28487;-92
2022/06/13 04:48:40;;;;;;;5.55;5.00;;;;;;;27.05;51.59;98955.40;4364356;79;28484;-89
2022/06/13 04:54:48;;;;;;;6.47;5.00;;;;;;;27.12;50.59;98959.78;4405753;80;28492;-90
2022/06/13 05:00:54;;;;;;;7.22;5.03;;;;;;;27.38;49.42;98946.78;4448276;79;28507;-86
2022/06/13 05:07:10;;;;;;;7.53;4.72;;;;;;;27.52;48.70;98942.28;4377282;79;28456;-81
2022/06/13 05:13:11;;;;;;;6.97;5.20;;;;;;;27.82;48.69;98935.11;4402379;79;28488;-81
2022/06/13 05:19:28;;;;;;;5.75;4.60;;;;;;;28.22;47.26;98927.95;4390621;80;35578;-90
2022/06/13 05:25:48;;;;;;;6.60;4.90;;;;;;;28.41;45.64;98926.47;4380749;80;28474;-89
2022/06/13 05:31:50;;;;;;;6.03;4.75;;;;;;;28.54;46.73;98919.70;4359814;80;28559;-86
2022/06/13 05:37:54;;;;;;;8.63;5.05;;;;;;;28.59;45.75;98916.69;4348435;80;28478;-87
2022/06/13 05:43:55;;;;;;;5.42;4.20;;;;;;;28.85;45.31;98920.90;4357340;80;28507;-86
2022/06/13 05:49:57;;;;;;;6.92;4.58;;;;;;;29.05;45.55;98912.67;4355487;80;28515;-85
2022/06/13 05:56:02;;;;;;;7.17;4.42;;;;;;;29.34;43.11;98911.95;4354653;80;28548;-84
2022/06/13 06:02:09;;;;;;;9.08;4.22;;;;;;;29.67;42.71;98907.95;4357688;80;28515;-85
2022/06/13 06:08:24;;;;;;;6.42;4.03;;;;;;;29.86;42.09;98918.81;4356826;80;28471;-85
2022/06/13 06:14:26;;;;;;;5.47;4.20;;;;;;;30.20;40.68;98910.79;4233940;83;28566;-84
2022/06/13 06:20:28;;;;;;;5.03;3.98;;;;;;;30.29;40.16;98905.00;4338606;80;28587;-85
2022/06/13 06:26:30;;;;;;;5.70;3.60;;;;;;;30.55;40.57;98904.88;4288293;81;28531;-85
2022/06/13 06:32:31;;;;;;;7.30;3.72;;;;;;;30.85;40.16;98898.06;4255235;83;28545;-84
2022/06/13 06:38:33;;;;;;;4.22;3.30;;;;;;;30.98;39.49;98904.22;4318387;81;28580;-85
2022/06/13 06:44:34;;;;;;;6.08;3.72;;;;;;;31.60;38.67;98910.66;4345569;81;28507;-84
2022/06/13 06:50:35;;;;;;;6.40;3.35;;;;;;;31.54;39.09;98913.57;4293174;82;28447;-85
2022/06/13 07:02:58;;;;;;;7.75;2.92;;;;;;;31.80;37.30;98909.97;4171721;84;28522;-85
2022/06/13 07:09:02;;;;;;;4.65;3.30;;;;;;;31.49;38.20;98908.33;4340834;80;28560;-84
2022/06/13 07:15:05;;;;;;;6.15;3.20;;;;;;;32.13;37.47;98908.34;4349024;80;28523;-85
2022/06/13 07:21:08;;;;;;;4.28;3.22;;;;;;;32.20;37.71;98902.66;4301551;81;29160;-85
2022/06/13 07:27:11;;;;;;;9.08;3.20;;;;;;;32.57;36.71;98903.23;4292671;81;28521;-84
2022/06/13 07:33:12;;;;;;;10.20;3.20;;;;;;;32.50;36.19;98916.48;4295165;81;28528;-85
2022/06/13 07:39:13;;;;;;;7.67;5.70;;;;;;;31.92;37.62;98920.04;4291880;81;28532;-85
2022/06/13 07:45:19;;;;;;;5.28;3.72;;;;;;;31.55;38.90;98913.78;4298680;81;28479;-84
2022/06/13 07:51:23;;;;;;;5.42;4.30;;;;;;;31.28;38.89;98904.08;4292308;81;28486;-85
2022/06/13 07:57:24;;;;;;;6.92;4.25;;;;;;;31.19;38.42;98902.94;4287970;81;28556;-85
2022/06/13 08:03:29;;;;;;;6.35;4.40;;;;;;;31.42;37.91;98902.91;4234343;82;28503;-84
2022/06/13 08:09:30;;;;;;;6.97;5.05;;;;;;;31.53;38.43;98902.25;4310955;81;28518;-84
2022/06/13 08:15:32;;;;;;;9.90;5.20;;;;;;;30.99;39.51;98911.97;4324881;81;28466;-86
2022/06/13 08:21:36;;;;;;;5.12;4.08;;;;;;;30.37;40.61;98910.12;4324894;81;28532;-85
2022/06/13 08:27:37;;;;;;;5.55;3.42;;;;;;;30.63;36.32;98900.25;4318597;81;28527;-86
2022/06/13 08:33:40;;;;;;;5.17;3.92;;;;;;;31.12;36.15;98891.72;4327424;81;28525;-84
2022/06/13 08:39:41;;;;;;;4.60;3.92;;;;;;;31.00;35.72;98894.92;4333151;81;28481;-85
2022/06/13 08:45:48;;;;;;;4.80;3.37;;;;;;;31.50;35.55;98875.20;4322258;81;28545;-85
2022/06/13 08:52:04;;;;;;;5.60;3.70;;;;;;;31.81;33.67;98875.44;4311667;81;28451;-85
2022/06/13 08:58:17;;;;;;;4.47;3.70;;;;;;;32.69;33.53;98863.19;4308105;81;28567;-84
2022/06/13 09:04:28;;;;;;;5.25;3.55;;;;;;;32.89;32.75;98873.46;4173948;84;28490;-84
2022/06/13 09:10:44;;;;;;;6.20;4.50;;;;;;;33.21;32.76;98870.72;4305269;81;28509;-86
2022/06/13 09:16:54;;;;;;;7.90;4.78;;;;;;;33.15;33.11;98867.50;4314058;81;28505;-84
2022/06/13 09:23:26;;;;;;;7.62;3.37;;;;;;;33.83;32.27;98864.03;4313115;81;28516;-84
2022/06/13 09:29:35;;;;;;;8.03;3.83;;;;;;;33.47;31.98;98870.27;4332845;80;28553;-83
2022/06/13 09:35:45;;;;;;;12.37;4.30;;;;;;;32.41;33.32;98875.66;4346601;80;28477;-83
2022/06/13 09:42:23;;;;;;;9.48;4.95;;;;;;;33.08;32.83;98895.30;4347262;80;28491;-83
2022/06/13 09:48:30;;;;;;;9.85;4.58;;;;;;;33.61;33.42;98883.47;4351239;80;28553;-83
2022/06/13 09:55:10;;;;;;;6.65;5.30;;;;;;;34.37;32.21;98876.72;4373674;80;28589;-83
2022/06/13 10:01:25;;;;;;;6.80;5.00;;;;;;;33.78;32.66;98877.75;4358717;80;28503;-84
2022/06/13 10:07:33;;;;;;;;;;;;;;;32.91;33.92;98884.22;4389723;80;28441;-83
2022/06/13 10:14:06;;;;;;;6.53;4.92;;;;;;;32.48;34.77;98888.26;4372921;80;20261;-84
2022/06/13 10:20:22;;;;;;;5.97;3.90;;;;;;;32.72;34.79;98890.23;4355272;81;28492;-84
2022/06/13 10:26:56;;;;;;;7.25;4.33;;;;;;;32.84;34.01;98893.32;4353592;79;28600;-84
2022/06/13 10:33:09;;;;;;;5.05;3.62;;;;;;;33.42;32.99;98893.70;4416809;79;28500;-83
2022/06/13 10:39:18;;;;;;;4.58;4.03;;;;;;;32.42;33.98;98890.39;4407700;79;28507;-83
2022/06/13 10:45:20;;;;;;;4.12;3.52;;;;;;;32.89;34.00;98896.34;4405657;79;28489;-84
2022/06/13 10:51:22;;;;;;;3.98;3.30;;;;;;;32.79;33.50;98895.05;4353465;80;28514;-83
2022/06/13 10:57:31;;;;;;;5.05;3.17;;;;;;;32.59;34.34;98884.77;4246393;82;28489;-84
2022/06/13 11:03:34;;;;;;;4.10;2.60;;;;;;;34.34;31.86;98870.55;4242728;82;28538;-84
2022/06/13 11:09:49;;;;;;;5.40;2.22;;;;;;;35.18;30.26;98881.12;4383497;80;28499;-83
2022/06/13 11:22:38;;;;;;;2.72;1.98;;;;;;;34.69;30.48;98877.36;4396614;80;28495;-83
2022/06/13 11:28:41;;;;;;;3.77;1.90;;;;;;;34.65;30.43;98882.16;4224386;82;43413;-84
2022/06/13 11:34:42;;;;;;;3.52;2.22;;;;;;;34.32;30.08;98875.13;4213769;83;28553;-83
2022/06/13 11:40:48;;;;;;;3.83;1.90;;;;;;;34.47;30.04;98850.04;4213180;83;28522;-84
2022/06/13 11:47:02;;;;;;;4.42;2.05;;;;;;;34.54;30.34;98862.61;4358184;80;28758;-84
2022/06/13 11:59:20;;;;;;;3.02;2.50;;;;;;;34.74;30.71;98864.99;4370387;80;28492;-83
2022/06/13 12:05:33;;;;;;;3.15;2.42;;;;;;;34.81;30.31;98864.19;4362959;80;28491;-83
2022/06/13 12:11:46;;;;;;;4.12;2.80;;;;;;;34.64;30.92;98868.00;4367735;80;28511;-83
2022/06/13 12:18:08;;;;;;;4.47;2.80;;;;;;;34.30;31.44;98868.34;4230317;83;28507;-84
2022/06/13 12:24:49;;;;;;;3.33;2.52;;;;;;;33.91;32.16;98871.23;4229442;83;28486;-83
2022/06/13 12:31:05;;;;;;;3.25;2.30;;;;;;;32.66;33.55;98857.01;4243624;82;28518;-84
2022/06/13 12:37:30;;;;;;;3.92;2.95;;;;;;;31.60;35.32;98836.25;4232757;82;28685;-83
2022/06/13 12:44:00;;;;;;;4.03;2.27;;;;;;;32.33;34.92;98836.41;4386734;79;28517;-84
2022/06/13 12:50:36;;;;;;;3.58;2.00;;;;;;;32.74;34.35;98839.77;4391782;79;28484;-84
2022/06/13 12:56:53;;;;;;;4.00;2.17;;;;;;;32.95;33.77;98833.55;4392067;79;28527;-84
2022/06/13 13:03:18;;;;;;;4.10;2.02;;;;;;;32.98;33.40;98816.67;4389922;80;28514;-83
2022/06/13 13:09:34;;;;;;;2.67;2.20;;;;;;;32.15;34.29;98827.34;4392619;79;28531;-83
2022/06/13 13:16:08;;;;;;;3.22;2.10;;;;;;;31.76;35.19;98822.95;4400959;79;28493;-83
2022/06/13 13:22:42;;;;;;;3.77;2.52;;;;;;;32.54;34.18;98813.00;4385586;79;28531;-84
2022/06/13 13:29:15;;;;;;;4.15;2.30;;;;;;;32.12;34.80;98819.16;4391970;79;28518;-84
2022/06/13 13:35:31;;;;;;;5.20;2.47;;;;;;;32.99;34.29;98821.87;4386966;80;28582;-84
2022/06/13 13:41:41;;;;;;;;;;;;;;;32.08;35.74;98828.08;4403854;79;28499;-84
2022/06/13 13:47:49;;;;;;;5.53;3.30;;;;;;;32.73;35.36;98841.73;4377480;79;20211;-83
2022/06/13 13:54:05;;;;;;;;;;;;;;;30.76;38.15;98832.91;4388045;79;28584;-83
2022/06/13 14:00:17;;;;;;;4.50;3.58;;;;;;;29.62;41.68;98843.13;4378461;79;20474;-83
2022/06/13 14:06:32;;;;;;;4.87;3.02;;;;;;;28.50;44.65;98849.70;4400569;79;28509;-84
2022/06/13 14:13:08;;;;;;;6.92;2.80;;;;;;;28.05;44.25;98850.29;4410299;79;28515;-83
2022/06/13 14:19:29;;;;;;;3.62;3.30;;;;;;;27.09;47.22;98836.89;4383685;80;28509;-81
2022/06/13 14:25:39;;;;;;;4.03;3.35;;;;;;;27.60;47.73;98854.41;4393348;80;28511;-82
2022/06/13 14:32:15;;;;;;;4.85;2.95;;;;;;;27.46;47.73;98845.66;4377961;79;28537;-82
2022/06/13 14:38:25;;;;;;;6.05;2.98;;;;;;;27.67;47.49;98869.77;4375039;80;28498;-83
2022/06/13 14:44:54;;;;;;;3.05;2.58;;;;;;;27.34;56.78;98894.22;4307187;81;28469;-82
2022/06/13 14:51:01;;;;;;;3.75;2.27;;;;;;;26.24;64.16;98904.81;4277148;82;28520;-82
2022/06/13 14:57:25;;;;;;;2.25;2.05;;;;;;;23.56;76.25;98918.90;4179880;83;28470;-84
2022/06/13 15:03:29;;;;;;;3.70;2.42;;;;;;;24.44;69.19;98934.55;4212721;83;28486;-83
2022/06/13 15:09:49;;;;;;;3.02;2.00;;;;;;;25.13;64.28;98974.53;4220332;83;28560;-80
2022/06/13 15:15:56;;;;;;;4.05;2.15;;;;;;;23.42;75.36;99015.63;4351971;80;28509;-81
2022/06/13 15:28:20;;;;;;;4.22;2.37;;;;;;;24.89;71.67;99088.10;4058607;86;28562;-80
2022/06/13 15:34:31;;;;;;;2.30;1.98;;;;;;;24.65;74.65;99055.60;4098772;86;28533;-80
2022/06/13 15:40:33;;;;;;;2.67;1.60;;;;;;;24.38;73.66;99052.05;4036315;87;28552;-79
2022/06/13 15:46:47;;;;;;;2.95;1.57;;;;;;;23.56;74.32;99047.06;4105441;86;28519;-81
2022/06/13 15:52:50;;;;;;;4.85;1.80;;;;;;;24.21;73.73;99026.77;4096207;86;28528;-81
2022/06/13 15:59:02;;;;;;;2.33;1.62;;;;;;;23.51;73.84;99037.83;4083266;86;28568;-82
2022/06/13 16:05:18;;;;;;;2.70;1.52;;;;;;;23.90;71.27;99037.29;4274195;80;28508;-81
2022/06/13 16:11:28;;;;;;;4.60;1.87;;;;;;;24.48;65.05;99058.59;4355233;80;28549;-80
2022/06/13 16:17:38;;;;;;;4.05;1.80;;;;;;;25.06;60.75;99073.50;4380476;80;28610;-79
2022/06/13 16:23:52;;;;;;;5.00;1.90;;;;;;;24.15;63.61;99071.98;4365974;80;28527;-81
2022/06/13 16:30:03;;;;;;;4.30;2.10;;;;;;;24.63;63.31;99061.41;4368768;80;28541;-79
2022/06/13 16:36:09;;;;;;;2.80;1.90;;;;;;;24.94;63.57;99075.30;4392104;80;28500;-81
2022/06/13 16:42:24;;;;;;;3.20;2.10;;;;;;;24.71;64.53;99076.85;4376736;80;28459;-82
2022/06/13 16:48:26;;;;;;;5.60;2.08;;;;;;;24.81;64.49;99063.35;4358244;80;28578;-80
2022/06/13 16:54:39;;;;;;;3.52;2.00;;;;;;;25.15;64.93;99066.59;4310300;81;28459;-79
2022/06/13 17:00:40;;;;;;;4.30;2.40;;;;;;;25.33;63.15;99065.95;4380140;80;28535;-78
2022/06/13 17:06:46;;;;;;;7.45;2.37;;;;;;;25.55;63.16;99066.86;4367640;80;28479;-79
2022/06/13 17:12:55;;;;;;;4.77;2.47;;;;;;;25.68;62.85;99065.02;4386396;80;28564;-79
2022/06/13 17:18:59;;;;;;;5.50;2.70;;;;;;;25.60;63.19;99084.58;4192608;82;28514;-80
2022/06/13 17:25:04;;;;;;;4.10;2.58;;;;;;;25.60;63.01;99094.22;4350345;80;28539;-79
2022/06/13 17:37:25;;;;;;;4.72;2.60;;;;;;;25.27;64.89;99095.36;4381955;80;28444;-78
2022/06/13 17:43:27;;;;;;;3.85;2.95;;;;;;;25.22;65.13;99092.21;4402804;79;28478;-77
2022/06/13 17:49:30;;;;;;;5.45;3.25;;;;;;;25.23;64.53;99095.78;4410977;79;28525;-83
2022/06/13 17:55:35;;;;;;;6.85;3.25;;;;;;;25.19;65.88;99099.75;4407411;79;28521;-80
2022/06/13 18:01:38;;;;;;;5.42;3.72;;;;;;;25.13;66.37;99110.68;4378368;79;28508;-79
2022/06/13 18:07:43;;;;;;;7.58;4.10;;;;;;;25.02;66.53;99106.91;4380558;79;28566;-78
2022/06/13 18:13:45;;;;;;;5.40;4.17;;;;;;;24.98;65.95;99112.83;4404494;79;28542;-77
2022/06/13 18:19:50;;;;;;;8.33;5.83;;;;;;;24.85;66.91;99142.11;4415456;80;28450;-83
2022/06/13 18:25:52;;;;;;;6.55;4.42;;;;;;;24.57;68.85;99151.22;4420803;79;28538;-76
2022/06/13 18:31:53;;;;;;;6.15;4.62;;;;;;;24.69;67.27;99149.22;4302845;80;28571;-77
2022/06/13 18:37:55;;;;;;;7.28;4.87;;;;;;;24.53;68.76;99165.38;4328624;81;28546;-78
2022/06/13 18:44:00;;;;;;;9.53;5.00;;;;;;;26.28;58.49;99170.26;4312273;81;28502;-79
2022/06/13 18:50:03;;;;;;;7.20;4.85;;;;;;;26.14;58.79;99187.03;4295309;82;28479;-78
2022/06/13 18:56:09;;;;;;;9.10;5.35;;;;;;;26.18;57.75;99182.45;4303341;81;28566;-80
2022/06/13 19:02:15;;;;;;;8.73;5.37;;;;;;;25.01;63.97;99182.30;4262936;81;28559;-78
2022/06/13 19:08:23;;;;;;;8.40;5.42;;;;;;;24.49;66.22;99197.60;4307199;81;28508;-78
2022/06/13 19:14:28;;;;;;;7.20;5.35;;;;;;;24.78;66.62;99201.70;4289219;81;28528;-78
2022/06/13 19:20:34;;;;;;;7.58;5.25;;;;;;;24.40;67.81;99216.00;4283905;81;28505;-76
2022/06/13 19:26:38;;;;;;;8.45;5.62;;;;;;;24.75;65.94;99227.62;4284758;81;28493;-80
2022/06/13 19:32:44;;;;;;;9.28;5.65;;;;;;;24.21;69.32;99219.86;4330998;80;28543;-83
2022/06/13 19:38:46;;;;;;;9.30;5.80;;;;;;;24.24;68.80;99238.98;4357838;80;28567;-79
2022/06/13 19:44:49;;;;;;;8.70;5.78;;;;;;;24.23;68.42;99240.95;4379738;80;28491;-80
2022/06/13 19:50:50;;;;;;;8.05;6.10;;;;;;;24.27;68.02;99247.98;4383777;80;28535;-80
2022/06/13 19:56:52;;;;;;;8.18;5.72;;;;;;;23.83;71.51;99259.30;4385037;80;28529;-79
2022/06/13 20:02:53;;;;;;;9.18;6.15;;;;;;;24.11;72.17;99271.50;4235362;83;28493;-78
2022/06/13 20:08:55;;;;;;;9.45;6.53;;;;;;;24.13;70.47;99269.24;4355834;80;28562;-79
2022/06/13 20:14:57;;;;;;;7.15;5.60;;;;;;;24.80;66.62;99288.55;4245980;83;28489;-82
2022/06/13 20:20:59;;;;;;;3.27;2.17;;;;;;;24.80;66.62;99288.55;4341503;80;28528;-81
2022/06/13 20:27:00;;;;;;;2.67;1.40;;;;;;;21.98;58.86;99341.87;4376924;80;28498;-79
2022/06/13 20:33:02;;;;;;;3.05;1.20;;;;;;;21.08;65.51;99353.57;4400925;79;28458;-78
2022/06/13 20:39:10;;;;;;;3.37;1.25;;;;;;;21.31;64.14;99327.29;4393791;80;28539;-77
2022/06/13 20:45:17;;;;;;;4.37;1.17;;;;;;;20.79;64.82;99324.39;4388365;79;28507;-79
2022/06/13 20:51:18;;;;;;;6.37;1.17;;;;;;;21.30;67.18;99277.81;4386441;81;28517;-78
2022/06/13 20:57:20;;;;;;;3.30;1.25;;;;;;;22.09;60.25;99264.46;4404106;79;28472;-78
2022/06/13 21:03:24;;;;;;;2.90;1.20;;;;;;;22.07;62.91;99267.49;4375235;79;28561;-77
2022/06/13 21:15:52;;;;;;;4.15;1.27;;;;;;;22.05;62.98;99275.20;4402764;79;28508;-78
2022/06/13 21:24:44;;;;;;;2.72;1.10;;;;;;;21.55;65.46;99283.98;4414959;79;28559;-78
2022/06/13 21:30:48;;;;;;;3.85;1.50;;;;;;;21.55;65.46;99283.98;4411587;80;28534;-78
2022/06/13 21:36:49;;;;;;;3.00;1.22;;;;;;;21.54;65.68;99287.83;4349375;81;28431;-78
2022/06/13 21:42:51;;;;;;;2.02;1.40;;;;;;;21.58;63.38;99298.42;4365381;81;28565;-78
2022/06/13 21:48:54;;;;;;;4.25;1.60;;;;;;;21.21;66.57;99300.09;4369631;80;28448;-77
2022/06/13 21:54:56;;;;;;;4.40;1.30;;;;;;;21.28;65.00;99299.97;4380889;80;28456;-78
2022/06/13 22:00:57;;;;;;;4.30;1.50;;;;;;;21.41;63.20;99298.96;4373583;80;28476;-79
2022/06/13 22:06:58;;;;;;;7.17;2.10;;;;;;;21.50;62.88;99293.62;4374989;80;28531;-78
2022/06/13 22:13:00;;;;;;;3.30;1.90;;;;;;;21.15;65.24;99291.16;4355617;80;28531;-79
2022/06/13 22:19:02;;;;;;;4.72;1.60;;;;;;;20.99;65.28;99289.99;4374130;80;28514;-79
2022/06/13 22:25:04;;;;;;;4.67;1.62;;;;;;;21.44;61.90;99281.95;4355647;80;28486;-79
2022/06/13 22:31:06;;;;;;;5.08;1.65;;;;;;;22.33;57.33;99282.08;4359091;80;28496;-79
2022/06/13 22:37:08;;;;;;;4.78;1.82;;;;;;;22.43;55.30;99281.05;4363434;80;28621;-78
2022/06/13 22:43:11;;;;;;;6.30;1.90;;;;;;;22.59;55.91;99284.32;4231140;84;28506;-78
2022/06/13 22:55:32;;;;;;;3.50;1.60;;;;;;;22.17;57.32;99294.42;4267755;82;28455;-80
2022/06/13 23:01:34;;;;;;;4.67;1.70;;;;;;;22.25;56.40;99294.55;4284849;83;28541;-78
2022/06/13 23:07:35;;;;;;;5.78;2.17;;;;;;;22.25;55.47;99296.47;4303084;81;28514;-78
2022/06/13 23:13:37;;;;;;;3.40;1.77;;;;;;;21.94;56.57;99296.48;4306144;81;28459;-79
2022/06/13 23:19:38;;;;;;;5.30;2.08;;;;;;;21.77;57.47;99297.06;4221255;84;28517;-79
2022/06/13 23:25:41;;;;;;;6.67;2.42;;;;;;;22.00;56.99;99311.69;4267041;82;28509;-79
2022/06/13 23:31:42;;;;;;;5.70;1.98;;;;;;;21.69;57.34;99304.58;4252921;82;28521;-79
2022/06/13 23:37:44;;;;;;;5.58;2.33;;;;;;;21.63;57.48;99301.09;4376450;80;28511;-78
2022/06/13 23:43:45;;;;;;;2.65;1.90;;;;;;;21.62;57.39;99304.94;4372708;80;28515;-79
2022/06/13 23:56:44;;;;;;;5.25;1.87;;;;;;;21.10;58.55;99316.64;4385506;80;28553;-79
